createdAt,value
2018-05-06T00:02:05.973Z,98629.63
2018-05-06T00:04:33.568Z,98628.78
2018-05-06T00:07:01.205Z,98621.98
2018-05-06T00:09:28.880Z,98632.29
2018-05-06T00:11:56.472Z,98626.19
2018-05-06T00:14:24.048Z,98621.27
2018-05-06T00:16:51.753Z,98620.70
2018-05-06T00:19:19.580Z,98619.77
2018-05-06T00:21:47.226Z,98612.81
2018-05-06T00:24:14.832Z,98616.54
2018-05-06T00:26:42.670Z,98618.86
2018-05-06T00:29:10.285Z,98613.20
2018-05-06T00:31:37.848Z,98614.03
2018-05-06T00:34:05.595Z,98620.28
2018-05-06T00:36:33.157Z,98621.02
2018-05-06T00:39:00.958Z,98619.49
2018-05-06T00:41:28.611Z,98627.00
2018-05-06T00:43:56.409Z,98625.23
2018-05-06T00:46:23.992Z,98619.03
2018-05-06T00:48:51.584Z,98615.92
2018-05-06T00:51:19.180Z,98616.25
2018-05-06T00:53:46.745Z,98618.00
2018-05-06T00:56:14.332Z,98615.92
2018-05-06T00:58:42.063Z,98613.78
2018-05-06T01:01:09.927Z,98611.08
2018-05-06T01:03:37.488Z,98617.64
2018-05-06T01:06:05.338Z,98616.97
2018-05-06T01:08:32.918Z,98617.95
2018-05-06T01:11:00.500Z,98615.56
2018-05-06T01:13:28.102Z,98617.84
2018-05-06T01:15:55.764Z,98611.00
2018-05-06T01:18:23.398Z,98626.63
2018-05-06T01:20:51.148Z,98615.14
2018-05-06T01:23:18.759Z,98610.78
2018-05-06T01:25:46.340Z,98596.66
2018-05-06T01:28:14.027Z,98592.31
2018-05-06T01:30:41.607Z,98609.16
2018-05-06T01:33:09.423Z,98617.05
2018-05-06T01:35:37.278Z,98616.55
2018-05-06T01:38:04.869Z,98615.00
2018-05-06T01:40:32.465Z,98612.31
2018-05-06T01:43:00.162Z,98616.66
2018-05-06T01:45:27.935Z,98618.83
2018-05-06T01:47:55.527Z,98623.09
2018-05-06T01:50:23.107Z,98629.77
2018-05-06T01:52:50.781Z,98628.95
2018-05-06T01:55:18.346Z,98625.91
2018-05-06T01:57:46.028Z,98628.71
2018-05-06T02:00:13.644Z,98622.69
2018-05-06T02:02:41.232Z,98615.05
2018-05-06T02:05:09.795Z,98612.88
2018-05-06T02:07:37.453Z,98614.25
2018-05-06T02:10:05.185Z,98616.33
2018-05-06T02:12:32.949Z,98624.11
2018-05-06T02:15:00.580Z,98615.19
2018-05-06T02:17:28.394Z,98619.46
2018-05-06T02:19:56.208Z,98625.46
2018-05-06T02:22:24.023Z,98624.39
2018-05-06T02:24:51.842Z,98622.36
2018-05-06T02:27:19.668Z,98630.80
2018-05-06T02:29:47.649Z,98627.63
2018-05-06T02:32:15.393Z,98625.36
2018-05-06T02:34:43.060Z,98633.87
2018-05-06T02:37:10.628Z,98634.38
2018-05-06T02:39:38.200Z,98642.66
2018-05-06T02:42:05.789Z,98636.14
2018-05-06T02:44:33.589Z,98640.45
2018-05-06T02:47:01.409Z,98639.73
2018-05-06T02:49:29.168Z,98641.66
2018-05-06T02:51:56.851Z,98645.69
2018-05-06T02:54:24.421Z,98643.23
2018-05-06T02:56:52.067Z,98638.89
2018-05-06T02:59:19.902Z,98642.27
2018-05-06T03:01:47.540Z,98651.11
2018-05-06T03:04:15.148Z,98653.11
2018-05-06T03:06:42.832Z,98654.50
2018-05-06T03:09:10.413Z,98655.20
2018-05-06T03:11:38.288Z,98662.35
2018-05-06T03:14:05.856Z,98667.20
2018-05-06T03:16:33.517Z,98664.42
2018-05-06T03:19:01.104Z,98667.11
2018-05-06T03:21:28.670Z,98670.80
2018-05-06T03:23:56.357Z,98674.18
2018-05-06T03:26:23.952Z,98679.50
2018-05-06T03:28:51.525Z,98675.58
2018-05-06T03:31:19.154Z,98673.77
2018-05-06T03:33:46.716Z,98671.15
2018-05-06T03:36:14.354Z,98682.66
2018-05-06T03:38:41.932Z,98681.84
2018-05-06T03:41:09.497Z,98679.95
2018-05-06T03:43:37.108Z,98687.88
2018-05-06T03:46:04.713Z,98686.57
2018-05-06T03:48:32.303Z,98685.52
2018-05-06T03:51:00.057Z,98670.73
2018-05-06T03:53:27.682Z,98688.45
2018-05-06T03:59:21.044Z,98687.16
2018-05-06T04:04:47.488Z,98688.29
2018-05-06T04:07:15.064Z,98689.26
2018-05-06T04:09:42.813Z,98699.39
2018-05-06T04:12:10.631Z,98708.61
2018-05-06T04:14:38.196Z,98710.70
2018-05-06T04:17:05.784Z,98699.95
2018-05-06T04:19:33.360Z,98707.34
2018-05-06T04:22:01.105Z,98707.86
2018-05-06T04:24:28.728Z,98716.66
2018-05-06T04:26:56.325Z,98713.98
2018-05-06T04:29:24.163Z,98708.08
2018-05-06T04:31:51.981Z,98715.72
2018-05-06T04:34:19.590Z,98712.94
2018-05-06T04:36:47.221Z,98715.87
2018-05-06T04:39:15.035Z,98717.25
2018-05-06T04:41:42.596Z,98717.13
2018-05-06T04:44:10.199Z,98720.47
2018-05-06T04:46:37.985Z,98723.14
2018-05-06T04:49:05.710Z,98720.98
2018-05-06T04:51:33.522Z,98700.61
2018-05-06T04:54:01.173Z,98714.70
2018-05-06T04:56:28.832Z,98717.73
2018-05-06T04:58:56.411Z,98714.30
2018-05-06T05:01:24.037Z,98714.95
2018-05-06T05:03:51.739Z,98713.48
2018-05-06T05:06:19.424Z,98710.59
2018-05-06T05:08:47.040Z,98710.33
2018-05-06T05:11:14.679Z,98705.27
2018-05-06T05:13:42.273Z,98705.30
2018-05-06T05:16:09.853Z,98703.22
2018-05-06T05:18:37.439Z,98702.70
2018-05-06T05:21:05.141Z,98708.35
2018-05-06T05:23:33.230Z,98715.15
2018-05-06T05:26:00.956Z,98708.09
2018-05-06T05:28:28.795Z,98709.16
2018-05-06T05:30:56.408Z,98709.28
2018-05-06T05:33:24.023Z,98710.67
2018-05-06T05:35:51.638Z,98712.86
2018-05-06T05:38:19.239Z,98713.56
2018-05-06T05:40:46.826Z,98705.65
2018-05-06T05:43:14.568Z,98708.66
2018-05-06T05:45:42.513Z,98702.77
2018-05-06T05:48:10.202Z,98698.31
2018-05-06T05:50:37.788Z,98703.85
2018-05-06T05:53:05.449Z,98697.94
2018-05-06T05:55:33.052Z,98702.48
2018-05-06T05:58:00.694Z,98702.57
2018-05-06T06:00:28.530Z,98696.86
2018-05-06T06:02:56.101Z,98704.18
2018-05-06T06:05:23.757Z,98695.71
2018-05-06T06:07:51.576Z,98703.30
2018-05-06T06:10:19.157Z,98686.27
2018-05-06T06:12:46.738Z,98691.77
2018-05-06T06:15:14.520Z,98684.88
2018-05-06T06:17:42.258Z,98693.64
2018-05-06T06:20:09.808Z,98689.58
2018-05-06T06:22:37.374Z,98691.73
2018-05-06T06:25:04.997Z,98689.14
2018-05-06T06:27:32.829Z,98685.16
2018-05-06T06:30:00.433Z,98680.66
2018-05-06T06:32:28.037Z,98679.52
2018-05-06T06:34:55.656Z,98686.02
2018-05-06T06:37:23.220Z,98672.36
2018-05-06T06:39:50.809Z,98676.95
2018-05-06T06:42:18.541Z,98680.39
2018-05-06T06:44:46.120Z,98684.77
2018-05-06T06:47:13.860Z,98680.16
2018-05-06T06:49:41.485Z,98674.34
2018-05-06T06:52:09.059Z,98671.44
2018-05-06T06:54:36.632Z,98678.84
2018-05-06T06:57:04.447Z,98673.52
2018-05-06T06:59:32.001Z,98674.23
2018-05-06T07:01:59.783Z,98667.59
2018-05-06T07:04:27.358Z,98664.05
2018-05-06T07:06:54.992Z,98664.97
2018-05-06T07:09:22.560Z,98665.11
2018-05-06T07:11:50.247Z,98663.84
2018-05-06T07:14:17.816Z,98669.07
2018-05-06T07:16:45.353Z,98666.20
2018-05-06T07:19:12.997Z,98668.03
2018-05-06T07:21:40.729Z,98664.45
2018-05-06T07:24:08.335Z,98666.48
2018-05-06T07:26:35.916Z,98665.39
2018-05-06T07:29:03.491Z,98659.41
2018-05-06T07:31:31.081Z,98659.03
2018-05-06T07:33:58.635Z,98660.32
2018-05-06T07:36:26.433Z,98657.88
2018-05-06T07:38:54.016Z,98657.73
2018-05-06T07:41:21.628Z,98666.73
2018-05-06T07:43:49.389Z,98660.97
2018-05-06T07:46:16.941Z,98661.47
2018-05-06T07:48:44.643Z,98666.18
2018-05-06T07:51:12.289Z,98671.58
2018-05-06T07:53:39.861Z,98665.78
2018-05-06T07:56:07.678Z,98664.77
2018-05-06T07:58:35.249Z,98669.39
2018-05-06T08:01:03.116Z,98661.72
2018-05-06T08:03:30.680Z,98659.58
2018-05-06T08:05:58.243Z,98660.46
2018-05-06T08:08:25.804Z,98649.59
2018-05-06T08:10:53.604Z,98657.54
2018-05-06T08:13:21.195Z,98655.23
2018-05-06T08:15:48.931Z,98660.30
2018-05-06T08:18:16.562Z,98658.20
2018-05-06T08:20:44.150Z,98661.29
2018-05-06T08:23:11.984Z,98663.56
2018-05-06T08:25:39.801Z,98659.54
2018-05-06T08:28:07.617Z,98662.77
2018-05-06T08:30:35.173Z,98674.05
2018-05-06T08:33:02.733Z,98663.11
2018-05-06T08:35:30.308Z,98661.22
2018-05-06T08:37:58.053Z,98667.34
2018-05-06T08:40:25.652Z,98671.91
2018-05-06T08:42:53.311Z,98664.48
2018-05-06T08:45:20.944Z,98665.11
2018-05-06T08:47:48.761Z,98661.30
2018-05-06T08:50:16.581Z,98661.19
2018-05-06T08:52:44.287Z,98651.84
2018-05-06T08:55:11.915Z,98651.91
2018-05-06T08:57:39.508Z,98653.60
2018-05-06T09:00:07.081Z,98644.34
2018-05-06T09:02:34.712Z,98645.63
2018-05-06T09:05:02.290Z,98648.89
2018-05-06T09:07:29.868Z,98646.80
2018-05-06T09:09:57.464Z,98650.25
2018-05-06T09:12:25.053Z,98648.59
2018-05-06T09:14:52.858Z,98648.09
2018-05-06T09:17:20.678Z,98643.47
2018-05-06T09:19:48.404Z,98648.37
2018-05-06T09:22:16.019Z,98642.50
2018-05-06T09:24:43.751Z,98642.80
2018-05-06T09:27:11.364Z,98645.19
2018-05-06T09:29:38.968Z,98632.95
2018-05-06T09:32:06.566Z,98643.96
2018-05-06T09:34:34.404Z,98637.20
2018-05-06T09:37:02.040Z,98641.50
2018-05-06T09:39:29.620Z,98631.08
2018-05-06T09:41:57.240Z,98630.63
2018-05-06T09:44:24.835Z,98628.84
2018-05-06T09:46:52.436Z,98626.12
2018-05-06T09:49:20.029Z,98628.02
2018-05-06T09:51:47.599Z,98620.84
2018-05-06T09:54:15.299Z,98625.84
2018-05-06T09:56:42.884Z,98618.24
2018-05-06T09:59:10.686Z,98614.28
2018-05-06T10:01:38.269Z,98616.64
2018-05-06T10:04:06.070Z,98609.48
2018-05-06T10:06:33.697Z,98608.15
2018-05-06T10:09:01.283Z,98608.01
2018-05-06T10:11:28.998Z,98607.06
2018-05-06T10:13:56.629Z,98599.97
2018-05-06T10:16:24.204Z,98603.61
2018-05-06T10:18:51.818Z,98598.20
2018-05-06T10:21:19.720Z,98604.16
2018-05-06T10:23:47.465Z,98603.67
2018-05-06T10:26:15.100Z,98592.14
2018-05-06T10:28:42.705Z,98595.16
2018-05-06T10:31:10.353Z,98588.53
2018-05-06T10:33:37.909Z,98589.80
2018-05-06T10:36:05.647Z,98584.25
2018-05-06T10:38:33.301Z,98580.98
2018-05-06T10:41:00.845Z,98586.79
2018-05-06T10:43:28.712Z,98584.66
2018-05-06T10:45:56.374Z,98577.81
2018-05-06T10:48:24.136Z,98580.72
2018-05-06T10:50:51.708Z,98572.80
2018-05-06T10:53:19.295Z,98572.48
2018-05-06T10:55:46.891Z,98566.90
2018-05-06T10:58:14.468Z,98561.58
2018-05-06T11:00:42.036Z,98556.64
2018-05-06T11:03:09.660Z,98556.30
2018-05-06T11:05:37.236Z,98556.09
2018-05-06T11:08:04.991Z,98554.13
2018-05-06T11:10:32.583Z,98552.55
2018-05-06T11:13:00.160Z,98545.31
2018-05-06T11:15:27.752Z,98548.33
2018-05-06T11:17:55.559Z,98539.05
2018-05-06T11:20:23.286Z,98534.06
2018-05-06T11:22:50.860Z,98534.99
2018-05-06T11:25:18.464Z,98541.61
2018-05-06T11:27:46.209Z,98529.51
2018-05-06T11:30:13.768Z,98525.61
2018-05-06T11:32:41.541Z,98527.04
2018-05-06T11:35:09.157Z,98518.95
2018-05-06T11:37:36.798Z,98522.37
2018-05-06T11:40:04.627Z,98518.22
2018-05-06T11:42:32.230Z,98514.92
2018-05-06T11:45:00.063Z,98516.25
2018-05-06T11:47:27.645Z,98514.58
2018-05-06T11:49:55.243Z,98507.74
2018-05-06T11:52:22.922Z,98508.68
2018-05-06T11:54:50.735Z,98495.25
2018-05-06T11:57:18.322Z,98488.97
2018-05-06T11:59:45.920Z,98488.70
2018-05-06T12:02:13.591Z,98477.33
2018-05-06T12:04:41.198Z,98473.02
2018-05-06T12:07:08.872Z,98469.34
2018-05-06T12:09:36.644Z,98457.42
2018-05-06T12:12:04.295Z,98448.33
2018-05-06T12:14:31.877Z,98446.75
2018-05-06T12:16:59.489Z,98447.56
2018-05-06T12:19:27.065Z,98440.34
2018-05-06T12:21:54.732Z,98431.63
2018-05-06T12:24:22.268Z,98425.70
2018-05-06T12:26:50.069Z,98420.06
2018-05-06T12:29:17.889Z,98416.88
2018-05-06T12:31:45.677Z,98405.79
2018-05-06T12:34:13.265Z,98401.75
2018-05-06T12:36:40.878Z,98401.34
2018-05-06T12:39:08.464Z,98408.31
2018-05-06T12:41:36.280Z,98404.53
2018-05-06T12:44:03.865Z,98398.77
2018-05-06T12:46:31.556Z,98392.45
2018-05-06T12:48:59.156Z,98390.00
2018-05-06T12:51:26.754Z,98388.30
2018-05-06T12:53:54.570Z,98393.87
2018-05-06T12:56:22.179Z,98378.31
2018-05-06T12:58:49.820Z,98369.47
2018-05-06T13:01:17.624Z,98381.27
2018-05-06T13:03:45.444Z,98387.98
2018-05-06T13:06:13.050Z,98381.81
2018-05-06T13:08:40.686Z,98372.30
2018-05-06T13:11:08.478Z,98368.69
2018-05-06T13:13:36.293Z,98376.63
2018-05-06T13:16:04.025Z,98375.83
2018-05-06T13:18:31.611Z,98371.41
2018-05-06T13:20:59.219Z,98375.69
2018-05-06T13:23:26.825Z,98366.97
2018-05-06T13:25:54.408Z,98378.30
2018-05-06T13:28:22.224Z,98378.67
2018-05-06T13:30:49.817Z,98365.50
2018-05-06T13:33:17.670Z,98362.84
2018-05-06T13:35:45.264Z,98353.19
2018-05-06T13:38:12.856Z,98361.55
2018-05-06T13:40:40.497Z,98364.84
2018-05-06T13:43:08.088Z,98352.48
2018-05-06T13:45:35.696Z,98358.89
2018-05-06T13:48:03.304Z,98355.61
2018-05-06T13:50:30.940Z,98354.66
2018-05-06T13:52:58.710Z,98353.34
2018-05-06T13:55:26.525Z,98359.53
2018-05-06T13:57:54.129Z,98358.69
2018-05-06T14:00:21.745Z,98355.60
2018-05-06T14:02:49.480Z,98361.98
2018-05-06T14:05:17.058Z,98356.52
2018-05-06T14:07:44.680Z,98355.83
2018-05-06T14:10:12.240Z,98351.67
2018-05-06T14:12:40.051Z,98356.36
2018-05-06T14:15:07.646Z,98359.79
2018-05-06T14:17:35.464Z,98360.30
2018-05-06T14:20:03.051Z,98351.81
2018-05-06T14:22:30.637Z,98357.58
2018-05-06T14:24:58.441Z,98356.64
2018-05-06T14:27:26.016Z,98351.22
2018-05-06T14:29:53.596Z,98365.20
2018-05-06T14:32:21.175Z,98354.64
2018-05-06T14:34:48.769Z,98360.23
2018-05-06T14:37:16.532Z,98357.56
2018-05-06T14:39:44.349Z,98355.28
2018-05-06T14:42:12.173Z,98345.66
2018-05-06T14:44:39.988Z,98351.89
2018-05-06T14:50:09.352Z,98345.42
2018-05-06T14:52:36.996Z,98345.86
2018-05-06T14:55:04.557Z,98340.70
2018-05-06T14:57:32.113Z,98340.73
2018-05-06T14:59:59.796Z,98344.36
2018-05-06T15:02:27.536Z,98335.39
2018-05-06T15:04:55.351Z,98338.71
2018-05-06T15:07:23.172Z,98343.48
2018-05-06T15:09:50.989Z,98346.51
2018-05-06T15:12:18.579Z,98346.94
2018-05-06T15:14:46.230Z,98342.04
2018-05-06T15:17:14.043Z,98343.19
2018-05-06T15:19:41.862Z,98345.86
2018-05-06T15:22:09.461Z,98347.01
2018-05-06T15:24:37.028Z,98341.55
2018-05-06T15:27:04.684Z,98344.46
2018-05-06T15:29:32.375Z,98335.84
2018-05-06T15:31:59.934Z,98347.69
2018-05-06T15:34:27.501Z,98342.80
2018-05-06T15:36:55.068Z,98346.34
2018-05-06T15:39:22.695Z,98341.97
2018-05-06T15:41:50.524Z,98344.48
2018-05-06T15:44:18.344Z,98340.23
2018-05-06T15:46:45.946Z,98346.59
2018-05-06T15:49:13.552Z,98357.16
2018-05-06T15:51:41.264Z,98357.86
2018-05-06T15:54:09.116Z,98367.38
2018-05-06T15:56:36.742Z,98368.02
2018-05-06T15:59:04.356Z,98370.03
2018-05-06T16:01:31.920Z,98371.77
2018-05-06T16:04:12.381Z,98366.19
2018-05-06T16:06:40.167Z,98376.27
2018-05-06T16:09:07.849Z,98384.53
2018-05-06T16:11:35.452Z,98384.22
2018-05-06T16:14:03.020Z,98381.98
2018-05-06T16:16:30.659Z,98389.82
2018-05-06T16:18:58.444Z,98391.94
2018-05-06T16:21:26.045Z,98404.84
2018-05-06T16:23:53.771Z,98401.28
2018-05-06T16:26:21.597Z,98412.52
2018-05-06T16:28:49.164Z,98419.69
2018-05-06T16:31:16.728Z,98423.94
2018-05-06T16:33:44.450Z,98425.46
2018-05-06T16:36:12.270Z,98426.80
2018-05-06T16:38:39.852Z,98426.28
2018-05-06T16:41:07.420Z,98425.28
2018-05-06T16:43:35.223Z,98426.74
2018-05-06T16:46:03.043Z,98430.94
2018-05-06T16:48:30.605Z,98424.23
2018-05-06T16:50:58.386Z,98433.66
2018-05-06T16:53:25.951Z,98436.84
2018-05-06T16:55:53.568Z,98473.20
2018-05-06T16:58:21.132Z,98513.66
2018-05-06T17:00:48.713Z,98526.98
2018-05-06T17:03:16.301Z,98534.05
2018-05-06T17:05:43.988Z,98524.27
2018-05-06T17:08:11.664Z,98513.84
2018-05-06T17:10:39.201Z,98525.39
2018-05-06T17:13:06.777Z,98524.55
2018-05-06T17:15:34.425Z,98522.27
2018-05-06T17:18:02.101Z,98531.78
2018-05-06T17:20:29.782Z,98530.82
2018-05-06T17:22:57.383Z,98529.94
2018-05-06T17:25:25.017Z,98541.79
2018-05-06T17:27:52.674Z,98541.69
2018-05-06T17:30:20.230Z,98540.83
2018-05-06T17:32:47.861Z,98531.42
2018-05-06T17:35:15.436Z,98538.13
2018-05-06T17:37:43.121Z,98528.89
2018-05-06T17:40:10.729Z,98534.03
2018-05-06T17:42:38.305Z,98539.59
2018-05-06T17:45:06.180Z,98547.89
2018-05-06T17:47:33.784Z,98543.50
2018-05-06T17:50:01.442Z,98546.70
2018-05-06T17:52:28.989Z,98546.63
2018-05-06T17:54:56.747Z,98543.89
2018-05-06T17:57:24.370Z,98547.83
2018-05-06T17:59:51.960Z,98556.76
2018-05-06T18:02:19.524Z,98555.53
2018-05-06T18:04:47.123Z,98558.65
2018-05-06T18:07:14.712Z,98564.89
2018-05-06T18:09:42.350Z,98568.02
2018-05-06T18:12:10.177Z,98554.48
2018-05-06T18:14:37.759Z,98571.20
2018-05-06T18:17:05.486Z,98564.30
2018-05-06T18:19:33.064Z,98577.58
2018-05-06T18:22:00.823Z,98574.02
2018-05-06T18:24:28.388Z,98577.89
2018-05-06T18:26:56.181Z,98578.75
2018-05-06T18:29:24.002Z,98581.56
2018-05-06T18:31:51.667Z,98581.13
2018-05-06T18:34:19.280Z,98589.77
2018-05-06T18:36:46.879Z,98592.79
2018-05-06T18:39:14.513Z,98599.91
2018-05-06T18:41:42.099Z,98611.70
2018-05-06T18:44:09.694Z,98608.06
2018-05-06T18:46:37.341Z,98611.92
2018-05-06T18:49:04.981Z,98613.51
2018-05-06T18:51:32.540Z,98613.83
2018-05-06T18:54:00.184Z,98618.03
2018-05-06T18:56:27.748Z,98614.37
2018-05-06T18:58:55.343Z,98612.69
2018-05-06T19:01:23.119Z,98626.61
2018-05-06T19:03:50.832Z,98629.86
2018-05-06T19:06:18.566Z,98631.19
2018-05-06T19:08:46.157Z,98637.59
2018-05-06T19:11:13.787Z,98635.27
2018-05-06T19:13:41.920Z,98637.91
2018-05-06T19:16:09.504Z,98638.73
2018-05-06T19:18:37.480Z,98646.16
2018-05-06T19:21:05.086Z,98651.72
2018-05-06T19:23:32.861Z,98666.66
2018-05-06T19:26:00.459Z,98670.28
2018-05-06T19:28:28.334Z,98670.36
2018-05-06T19:30:56.261Z,98667.43
2018-05-06T19:33:23.941Z,98671.48
2018-05-06T19:35:51.511Z,98667.51
2018-05-06T19:38:20.446Z,98670.05
2018-05-06T19:40:48.188Z,98672.67
2018-05-06T19:43:15.815Z,98675.72
2018-05-06T19:45:43.408Z,98670.44
2018-05-06T19:48:11.186Z,98674.40
2018-05-06T19:50:38.832Z,98674.81
2018-05-06T19:53:06.532Z,98675.84
2018-05-06T19:55:34.161Z,98678.77
2018-05-06T19:58:01.810Z,98676.13
2018-05-06T20:00:29.392Z,98678.78
2018-05-06T20:02:57.207Z,98682.33
2018-05-06T20:05:24.917Z,98675.31
2018-05-06T20:07:52.950Z,98675.30
2018-05-06T20:10:20.532Z,98688.08
2018-05-06T20:12:48.179Z,98687.94
2018-05-06T20:15:15.827Z,98679.71
2018-05-06T20:17:43.598Z,98679.09
2018-05-06T20:20:11.177Z,98688.50
2018-05-06T20:22:38.886Z,98693.70
2018-05-06T20:25:06.586Z,98700.89
2018-05-06T20:27:35.154Z,98691.55
2018-05-06T20:30:02.812Z,98693.22
2018-05-06T20:32:30.589Z,98698.75
2018-05-06T20:34:58.170Z,98698.63
2018-05-06T20:37:25.956Z,98708.36
2018-05-06T20:39:53.666Z,98698.88
2018-05-06T20:42:21.338Z,98709.91
2018-05-06T20:44:49.232Z,98703.28
2018-05-06T20:47:17.029Z,98706.09
2018-05-06T20:49:44.592Z,98707.63
2018-05-06T20:52:12.233Z,98708.80
2018-05-06T20:54:39.904Z,98717.53
2018-05-06T20:57:07.853Z,98712.59
2018-05-06T20:59:35.651Z,98718.03
2018-05-06T21:02:03.695Z,98720.09
2018-05-06T21:04:31.302Z,98725.77
2018-05-06T21:06:59.072Z,98710.32
2018-05-06T21:09:26.822Z,98722.92
2018-05-06T21:11:54.392Z,98721.59
2018-05-06T21:14:22.018Z,98716.27
2018-05-06T21:16:49.635Z,98716.77
2018-05-06T21:19:17.226Z,98716.80
2018-05-06T21:21:44.781Z,98720.73
2018-05-06T21:24:12.372Z,98722.54
2018-05-06T21:26:39.992Z,98715.22
2018-05-06T21:29:07.568Z,98711.07
2018-05-06T21:31:35.140Z,98709.66
2018-05-06T21:34:02.740Z,98706.58
2018-05-06T21:36:30.317Z,98702.31
2018-05-06T21:38:57.968Z,98696.00
2018-05-06T21:41:25.540Z,98700.67
2018-05-06T21:43:53.099Z,98699.24
2018-05-06T21:46:20.684Z,98692.98
2018-05-06T21:48:48.481Z,98689.09
2018-05-06T21:51:16.202Z,98692.12
2018-05-06T21:53:43.761Z,98694.12
2018-05-06T21:56:11.389Z,98692.76
2018-05-06T21:58:38.980Z,98696.97
2018-05-06T22:01:06.691Z,98691.45
2018-05-06T22:03:34.491Z,98685.95
2018-05-06T22:06:02.072Z,98685.76
2018-05-06T22:08:29.705Z,98685.95
2018-05-06T22:10:57.444Z,98684.77
2018-05-06T22:13:25.130Z,98670.53
2018-05-06T22:15:52.728Z,98685.40
2018-05-06T22:18:20.463Z,98682.41
2018-05-06T22:20:48.281Z,98689.30
2018-05-06T22:23:16.017Z,98679.45
2018-05-06T22:25:43.660Z,98679.03
2018-05-06T22:28:11.233Z,98680.48
2018-05-06T22:30:38.857Z,98678.18
2018-05-06T22:33:06.428Z,98671.51
2018-05-06T22:35:33.981Z,98673.87
2018-05-06T22:38:01.572Z,98678.31
2018-05-06T22:40:29.140Z,98672.70
2018-05-06T22:42:56.760Z,98683.86
2018-05-06T22:45:24.345Z,98681.50
2018-05-06T22:47:51.907Z,98683.06
2018-05-06T22:50:19.502Z,98693.13
2018-05-06T22:52:47.071Z,98698.16
2018-05-06T22:55:14.872Z,98696.02
2018-05-06T22:57:42.504Z,98705.17
2018-05-06T23:00:10.406Z,98706.30
2018-05-06T23:02:37.978Z,98709.34
2018-05-06T23:05:05.551Z,98707.34
2018-05-06T23:07:33.191Z,98706.69
2018-05-06T23:10:00.830Z,98712.44
2018-05-06T23:12:28.396Z,98722.48
2018-05-06T23:14:56.029Z,98715.48
2018-05-06T23:17:23.645Z,98722.56
2018-05-06T23:19:51.214Z,98728.72
2018-05-06T23:22:18.899Z,98729.41
2018-05-06T23:24:46.436Z,98729.45
2018-05-06T23:27:14.119Z,98717.73
2018-05-06T23:29:41.696Z,98721.30
2018-05-06T23:32:09.339Z,98721.00
2018-05-06T23:34:37.161Z,98725.46
2018-05-06T23:37:04.740Z,98745.78
2018-05-06T23:39:32.314Z,98734.92
2018-05-06T23:41:59.893Z,98725.66
2018-05-06T23:44:27.604Z,98729.11
2018-05-06T23:46:55.342Z,98738.82
2018-05-06T23:49:23.057Z,98756.20
2018-05-06T23:51:50.895Z,98751.52
2018-05-06T23:54:18.709Z,98753.14
2018-05-06T23:56:46.468Z,98741.12
2018-05-06T23:59:14.081Z,98747.97
